Time;durP1;ratioP1;P1;durP2;ratioP2;P2;SDS_P1;SDS_P2;PMS_P1;PMS_P2;Temp;Humidity;BMP_temperature;BMP_pressure;BME280_temperature;BME280_humidity;BME280_pressure;Samples;Min_cycle;Max_cycle;Signal;HPM_P1;HPM_P2
2023/01/31 00:01:52;;;;;;;;;;;3.50;99.90;;;;;;8384854;28;19924;-75
2023/01/31 00:05:53;;;;;;;;;;;3.40;99.90;;;;;;8365754;28;20287;-75
2023/01/31 00:09:55;;;;;;;;;;;3.40;99.90;;;;;;8387211;28;20325;-75
2023/01/31 00:13:58;;;;;;;;;;;3.30;99.90;;;;;;8385051;28;19956;-75
2023/01/31 00:17:59;;;;;;;;;;;3.30;99.90;;;;;;8386650;28;19924;-74
2023/01/31 00:22:01;;;;;;;;;;;3.30;99.90;;;;;;8376269;28;19925;-75
2023/01/31 00:26:06;;;;;;;;;;;3.20;99.90;;;;;;8388561;28;19972;-75
2023/01/31 00:30:09;;;;;;;;;;;3.10;99.90;;;;;;8398679;28;19967;-75
2023/01/31 00:34:11;;;;;;;;;;;3.00;99.90;;;;;;8370074;28;19924;-75
2023/01/31 00:38:12;;;;;;;;;;;3.00;99.90;;;;;;8381872;28;19998;-75
2023/01/31 00:42:14;;;;;;;;;;;2.90;99.90;;;;;;8388528;28;20303;-75
2023/01/31 00:46:16;;;;;;;;;;;2.80;99.90;;;;;;8367280;28;20011;-75
2023/01/31 00:50:17;;;;;;;;;;;2.70;99.90;;;;;;8373243;28;19978;-75
2023/01/31 00:54:19;;;;;;;;;;;2.70;99.90;;;;;;8384397;28;19924;-74
2023/01/31 00:58:21;;;;;;;;;;;2.70;99.90;;;;;;8382127;28;19925;-75
2023/01/31 01:02:22;;;;;;;;;;;2.70;99.90;;;;;;8391839;28;19925;-75
2023/01/31 01:06:24;;;;;;;;;;;2.70;99.90;;;;;;8361558;28;20299;-75
2023/01/31 01:10:26;;;;;;;;;;;2.70;99.90;;;;;;8388559;28;20922;-75
2023/01/31 01:14:28;;;;;;;;;;;2.70;99.90;;;;;;8372969;28;19924;-75
2023/01/31 01:18:29;;;;;;;;;;;2.80;99.90;;;;;;8383941;28;19924;-75
2023/01/31 01:22:32;;;;;;;;;;;2.80;99.90;;;;;;8378338;28;21042;-75
2023/01/31 01:26:35;;;;;;;;;;;2.90;99.90;;;;;;8397517;28;20119;-75
2023/01/31 01:30:37;;;;;;;;;;;3.00;99.90;;;;;;8378194;28;21015;-75
2023/01/31 01:39:37;;;;;;;;;;;3.00;99.90;;;;;;8385931;28;20374;-75
2023/01/31 01:43:39;;;;;;;;;;;3.00;99.90;;;;;;8385152;28;19995;-75
2023/01/31 01:47:44;;;;;;;;;;;3.00;99.90;;;;;;8369727;28;19924;-75
2023/01/31 01:51:47;;;;;;;;;;;3.10;99.90;;;;;;8386170;28;19931;-75
2023/01/31 01:55:51;;;;;;;;;;;3.10;99.90;;;;;;8370014;28;20022;-75
2023/01/31 02:00:07;;;;;;;;;;;3.20;99.90;;;;;;8387838;28;19982;-75
2023/01/31 02:04:12;;;;;;;;;;;3.30;99.90;;;;;;8384414;28;22028;-75
2023/01/31 02:08:16;;;;;;;;;;;3.40;99.90;;;;;;8383761;28;19933;-75
2023/01/31 02:12:18;;;;;;;;;;;3.40;99.90;;;;;;8381515;28;19939;-75
2023/01/31 02:16:19;;;;;;;;;;;3.50;99.90;;;;;;8363824;28;20106;-75
2023/01/31 02:20:36;;;;;;;;;;;3.50;99.90;;;;;;8374162;28;19979;-75
2023/01/31 02:24:38;;;;;;;;;;;3.60;99.90;;;;;;8392011;28;19925;-75
2023/01/31 02:28:58;;;;;;;;;;;3.60;99.90;;;;;;8365754;28;19924;-75
2023/01/31 02:33:06;;;;;;;;;;;3.60;99.90;;;;;;8395554;28;20305;-75
2023/01/31 02:37:14;;;;;;;;;;;3.60;99.90;;;;;;8387159;28;19928;-75
2023/01/31 02:41:36;;;;;;;;;;;3.70;99.90;;;;;;8405296;28;19932;-75
2023/01/31 02:45:42;;;;;;;;;;;3.70;99.90;;;;;;8377391;28;21882;-75
2023/01/31 02:49:47;;;;;;;;;;;3.80;99.90;;;;;;8392491;28;19964;-75
2023/01/31 02:54:04;;;;;;;;;;;3.80;99.90;;;;;;8387303;28;20398;-75
2023/01/31 02:58:08;;;;;;;;;;;3.90;99.90;;;;;;8387777;28;20247;-75
2023/01/31 03:02:10;;;;;;;;;;;4.00;99.90;;;;;;8387242;28;20535;-75
2023/01/31 03:06:21;;;;;;;;;;;4.00;99.90;;;;;;8388031;28;19932;-75
2023/01/31 03:10:45;;;;;;;;;;;4.10;99.90;;;;;;8385045;28;20390;-75
2023/01/31 03:15:09;;;;;;;;;;;4.20;99.90;;;;;;8384463;28;19954;-75
2023/01/31 03:19:22;;;;;;;;;;;4.30;99.90;;;;;;8383169;28;20027;-75
2023/01/31 03:23:28;;;;;;;;;;;4.30;99.90;;;;;;8386459;28;20549;-75
2023/01/31 03:27:30;;;;;;;;;;;4.40;99.90;;;;;;8384804;28;19939;-76
2023/01/31 03:31:35;;;;;;;;;;;4.40;99.90;;;;;;8381050;28;20141;-75
2023/01/31 03:35:38;;;;;;;;;;;4.50;99.90;;;;;;8385094;28;19978;-75
2023/01/31 03:39:50;;;;;;;;;;;4.50;99.90;;;;;;8379400;28;20376;-75
2023/01/31 03:44:00;;;;;;;;;;;4.60;99.90;;;;;;8384223;28;19932;-75
2023/01/31 03:48:05;;;;;;;;;;;4.60;99.90;;;;;;8380873;28;19964;-75
2023/01/31 03:52:07;;;;;;;;;;;4.60;99.90;;;;;;8388917;28;19979;-75
2023/01/31 03:56:16;;;;;;;;;;;4.60;99.90;;;;;;8381454;28;19939;-75
2023/01/31 04:00:18;;;;;;;;;;;4.60;99.90;;;;;;8383489;28;19925;-75
2023/01/31 04:04:21;;;;;;;;;;;4.70;99.90;;;;;;8390246;28;19925;-75
2023/01/31 04:08:23;;;;;;;;;;;4.70;99.90;;;;;;8388535;28;20391;-75
2023/01/31 04:12:25;;;;;;;;;;;4.70;99.90;;;;;;8395038;28;20001;-75
2023/01/31 04:16:27;;;;;;;;;;;4.70;99.90;;;;;;8382760;28;20338;-75
2023/01/31 04:20:29;;;;;;;;;;;4.70;99.90;;;;;;8376100;28;20498;-75
2023/01/31 04:24:30;;;;;;;;;;;4.70;99.90;;;;;;8366041;28;19935;-75
2023/01/31 04:28:32;;;;;;;;;;;4.60;99.90;;;;;;8397261;28;20019;-75
2023/01/31 04:32:34;;;;;;;;;;;4.60;99.90;;;;;;8365652;28;19929;-75
2023/01/31 04:36:35;;;;;;;;;;;4.50;99.90;;;;;;8360823;28;20326;-75
2023/01/31 04:40:37;;;;;;;;;;;4.50;99.90;;;;;;8369130;28;19954;-75
2023/01/31 04:44:39;;;;;;;;;;;4.50;99.90;;;;;;8366367;28;19928;-75
2023/01/31 04:48:41;;;;;;;;;;;4.50;99.90;;;;;;8378091;28;20007;-75
2023/01/31 04:52:42;;;;;;;;;;;4.60;99.90;;;;;;8377540;28;20302;-76
2023/01/31 04:56:44;;;;;;;;;;;4.60;99.90;;;;;;8383158;28;20293;-75
2023/01/31 05:00:45;;;;;;;;;;;4.60;99.90;;;;;;8401598;28;19935;-75
2023/01/31 05:04:47;;;;;;;;;;;4.60;99.90;;;;;;8366264;28;19932;-74
2023/01/31 05:08:51;;;;;;;;;;;4.60;99.90;;;;;;8374627;28;19931;-75
2023/01/31 05:12:53;;;;;;;;;;;4.70;99.90;;;;;;8372420;28;19924;-75
2023/01/31 05:16:55;;;;;;;;;;;4.70;99.90;;;;;;8382561;28;19939;-75
2023/01/31 05:20:56;;;;;;;;;;;4.70;99.90;;;;;;8392816;28;19938;-75
2023/01/31 05:24:58;;;;;;;;;;;4.70;99.90;;;;;;8367331;28;20074;-75
2023/01/31 05:29:02;;;;;;;;;;;4.70;99.90;;;;;;8383701;28;19980;-75
2023/01/31 05:33:05;;;;;;;;;;;4.70;99.90;;;;;;8370370;28;20267;-75
2023/01/31 05:37:07;;;;;;;;;;;4.80;99.90;;;;;;8389819;28;20070;-75
2023/01/31 05:41:08;;;;;;;;;;;4.80;99.90;;;;;;8396583;28;20323;-75
2023/01/31 05:45:11;;;;;;;;;;;4.90;99.90;;;;;;8394690;28;20481;-75
2023/01/31 05:49:12;;;;;;;;;;;4.90;99.90;;;;;;8382992;28;19951;-75
2023/01/31 05:53:14;;;;;;;;;;;4.90;99.90;;;;;;8372199;28;19932;-75
2023/01/31 05:57:16;;;;;;;;;;;5.00;99.90;;;;;;8374998;28;19951;-75
2023/01/31 06:01:18;;;;;;;;;;;5.00;99.90;;;;;;8395110;28;20074;-75
2023/01/31 06:05:22;;;;;;;;;;;5.00;99.90;;;;;;8376980;28;19967;-75
2023/01/31 06:09:24;;;;;;;;;;;5.00;99.90;;;;;;8394687;28;19924;-75
2023/01/31 06:13:25;;;;;;;;;;;5.00;99.90;;;;;;8370512;28;19932;-75
2023/01/31 06:17:27;;;;;;;;;;;5.00;99.90;;;;;;8376475;28;20015;-76
2023/01/31 06:21:31;;;;;;;;;;;5.00;99.90;;;;;;8373598;28;19978;-75
2023/01/31 06:25:32;;;;;;;;;;;5.00;99.90;;;;;;8387339;28;20384;-75
2023/01/31 06:29:34;;;;;;;;;;;5.00;99.90;;;;;;8388821;28;19938;-75
2023/01/31 06:33:36;;;;;;;;;;;5.00;99.90;;;;;;8401673;28;20326;-75
2023/01/31 06:37:47;;;;;;;;;;;5.10;99.90;;;;;;8371315;28;19925;-76
2023/01/31 06:41:49;;;;;;;;;;;5.10;99.90;;;;;;8387812;28;19928;-75
2023/01/31 06:45:50;;;;;;;;;;;5.10;99.90;;;;;;8365683;28;19952;-75
2023/01/31 06:49:52;;;;;;;;;;;5.20;99.90;;;;;;8391713;28;19932;-75
2023/01/31 06:53:55;;;;;;;;;;;5.20;99.90;;;;;;8391715;28;19958;-75
2023/01/31 06:57:57;;;;;;;;;;;5.20;99.90;;;;;;8374655;28;19924;-75
2023/01/31 07:01:59;;;;;;;;;;;5.20;99.90;;;;;;8373334;28;19924;-75
2023/01/31 07:06:01;;;;;;;;;;;5.30;99.90;;;;;;8390791;28;20030;-75
2023/01/31 07:10:03;;;;;;;;;;;5.30;99.90;;;;;;8397618;28;20030;-75
2023/01/31 07:14:04;;;;;;;;;;;5.30;99.90;;;;;;8379577;28;19925;-75
2023/01/31 07:18:06;;;;;;;;;;;5.30;99.90;;;;;;8379059;28;20039;-75
2023/01/31 07:22:08;;;;;;;;;;;5.40;99.90;;;;;;8382369;28;19930;-75
2023/01/31 07:26:09;;;;;;;;;;;5.40;99.90;;;;;;8395066;28;20359;-75
2023/01/31 07:30:11;;;;;;;;;;;5.40;99.90;;;;;;8380306;28;19929;-76
2023/01/31 07:34:13;;;;;;;;;;;5.40;99.90;;;;;;8401002;28;19924;-75
2023/01/31 07:38:14;;;;;;;;;;;5.40;99.90;;;;;;8393994;28;20349;-75
2023/01/31 07:42:16;;;;;;;;;;;5.40;99.90;;;;;;8378605;28;19929;-75
2023/01/31 07:46:18;;;;;;;;;;;5.40;99.90;;;;;;8393493;28;19933;-75
2023/01/31 07:50:19;;;;;;;;;;;5.40;99.90;;;;;;8396032;28;20269;-75
2023/01/31 07:54:21;;;;;;;;;;;5.40;99.90;;;;;;8380497;28;19924;-75
2023/01/31 07:58:23;;;;;;;;;;;5.40;99.90;;;;;;8395985;28;19972;-75
2023/01/31 08:06:45;;;;;;;;;;;5.50;99.90;;;;;;8391188;28;20295;-75
2023/01/31 08:10:47;;;;;;;;;;;5.50;99.90;;;;;;8396801;28;19935;-75
2023/01/31 08:14:48;;;;;;;;;;;5.50;99.90;;;;;;8395313;28;20329;-75
2023/01/31 08:18:50;;;;;;;;;;;5.50;99.90;;;;;;8394992;28;19924;-75
2023/01/31 08:22:52;;;;;;;;;;;5.50;99.90;;;;;;8396661;28;19924;-75
2023/01/31 08:26:53;;;;;;;;;;;5.50;99.90;;;;;;8386671;28;19974;-75
2023/01/31 08:30:55;;;;;;;;;;;5.60;99.90;;;;;;8398740;28;19978;-75
2023/01/31 08:35:09;;;;;;;;;;;5.60;99.90;;;;;;8378317;28;19924;-75
2023/01/31 08:39:10;;;;;;;;;;;5.60;99.90;;;;;;8393010;28;19975;-75
2023/01/31 08:43:12;;;;;;;;;;;5.70;99.90;;;;;;8390723;28;20006;-75
2023/01/31 08:47:14;;;;;;;;;;;5.70;99.90;;;;;;8384699;28;19973;-75
2023/01/31 08:51:16;;;;;;;;;;;5.70;99.90;;;;;;8395358;28;19928;-75
2023/01/31 08:55:17;;;;;;;;;;;5.80;99.90;;;;;;8393388;28;20271;-75
2023/01/31 08:59:19;;;;;;;;;;;5.80;99.90;;;;;;8395662;28;19928;-75
2023/01/31 09:03:20;;;;;;;;;;;5.80;99.90;;;;;;8393279;28;20299;-75
2023/01/31 09:07:22;;;;;;;;;;;5.80;99.90;;;;;;8393196;28;19928;-75
2023/01/31 09:11:26;;;;;;;;;;;5.90;99.90;;;;;;8395126;28;20000;-75
2023/01/31 09:15:27;;;;;;;;;;;6.00;99.90;;;;;;8374958;28;19928;-75
2023/01/31 09:19:29;;;;;;;;;;;6.00;99.90;;;;;;8376492;28;19931;-75
2023/01/31 09:23:31;;;;;;;;;;;6.00;99.90;;;;;;8375310;28;20375;-75
2023/01/31 09:27:34;;;;;;;;;;;6.00;99.90;;;;;;8388431;28;20019;-75
2023/01/31 09:31:35;;;;;;;;;;;6.00;99.90;;;;;;8374534;28;19925;-75
2023/01/31 09:35:37;;;;;;;;;;;6.00;99.90;;;;;;8400941;28;19928;-75
2023/01/31 09:39:38;;;;;;;;;;;6.10;99.90;;;;;;8393401;28;20292;-75
2023/01/31 09:43:42;;;;;;;;;;;6.10;99.90;;;;;;8373959;28;19928;-75
2023/01/31 09:47:51;;;;;;;;;;;6.20;99.90;;;;;;8365723;28;20380;-74
2023/01/31 09:51:59;;;;;;;;;;;6.30;99.90;;;;;;8378817;28;20450;-75
2023/01/31 09:56:01;;;;;;;;;;;6.40;99.90;;;;;;8377682;28;19931;-75
2023/01/31 10:00:24;;;;;;;;;;;6.40;99.90;;;;;;8397715;28;19928;-74
2023/01/31 10:04:36;;;;;;;;;;;6.40;99.90;;;;;;8400698;28;20019;-75
2023/01/31 10:08:56;;;;;;;;;;;6.30;99.90;;;;;;8414031;28;19960;-75
2023/01/31 10:12:59;;;;;;;;;;;6.30;99.90;;;;;;8398698;28;20323;-75
2023/01/31 10:17:00;;;;;;;;;;;6.40;99.90;;;;;;8378216;28;19967;-75
2023/01/31 10:21:07;;;;;;;;;;;6.40;99.90;;;;;;8392927;28;19928;-75
2023/01/31 10:25:25;;;;;;;;;;;6.40;99.90;;;;;;8392873;28;19925;-75
2023/01/31 10:29:31;;;;;;;;;;;6.40;99.90;;;;;;8393624;28;19935;-75
2023/01/31 10:33:38;;;;;;;;;;;6.50;99.90;;;;;;8382739;28;20797;-75
2023/01/31 10:37:53;;;;;;;;;;;6.60;99.90;;;;;;8379116;28;20007;-75
2023/01/31 10:41:54;;;;;;;;;;;6.70;99.90;;;;;;8398426;28;19924;-75
2023/01/31 10:45:58;;;;;;;;;;;6.70;99.90;;;;;;8398426;28;19924;-75
2023/01/31 10:50:04;;;;;;;;;;;6.70;99.90;;;;;;8381822;28;19932;-74
2023/01/31 10:54:12;;;;;;;;;;;6.70;99.90;;;;;;8378975;28;20277;-75
2023/01/31 10:58:16;;;;;;;;;;;6.80;99.90;;;;;;8401377;28;20014;-75
2023/01/31 11:02:25;;;;;;;;;;;6.80;99.90;;;;;;8377437;28;19971;-75
2023/01/31 11:06:27;;;;;;;;;;;6.90;99.90;;;;;;8397163;28;20342;-75
2023/01/31 11:10:29;;;;;;;;;;;6.90;99.90;;;;;;8380888;28;20418;-75
2023/01/31 11:14:31;;;;;;;;;;;7.00;99.90;;;;;;8379747;28;20360;-75
2023/01/31 11:18:42;;;;;;;;;;;7.00;99.90;;;;;;8377746;28;19932;-75
2023/01/31 11:22:45;;;;;;;;;;;7.10;99.90;;;;;;8379870;28;20839;-75
2023/01/31 11:26:51;;;;;;;;;;;7.10;99.90;;;;;;8402486;28;19934;-75
2023/01/31 11:30:54;;;;;;;;;;;7.10;99.90;;;;;;8406557;28;20031;-75
2023/01/31 11:34:57;;;;;;;;;;;7.10;99.90;;;;;;8402144;28;20402;-75
2023/01/31 11:39:16;;;;;;;;;;;7.10;99.90;;;;;;8382846;28;19928;-75
2023/01/31 11:43:18;;;;;;;;;;;7.00;99.90;;;;;;8396177;28;19928;-75
2023/01/31 11:47:23;;;;;;;;;;;7.00;99.90;;;;;;8396857;28;20269;-75
2023/01/31 11:51:29;;;;;;;;;;;7.00;99.90;;;;;;8406167;28;20390;-75
2023/01/31 11:55:35;;;;;;;;;;;7.00;99.90;;;;;;8368355;28;20001;-75
2023/01/31 11:59:37;;;;;;;;;;;7.00;99.90;;;;;;8393502;28;19929;-75
2023/01/31 12:03:39;;;;;;;;;;;7.00;99.90;;;;;;8390259;28;20402;-75
2023/01/31 12:07:56;;;;;;;;;;;7.00;99.90;;;;;;8384599;28;20274;-75
2023/01/31 12:11:59;;;;;;;;;;;7.00;99.90;;;;;;8392628;28;20265;-75
2023/01/31 12:16:03;;;;;;;;;;;7.00;99.90;;;;;;8397602;28;20392;-75
2023/01/31 12:20:07;;;;;;;;;;;7.10;99.90;;;;;;8385287;28;19936;-75
2023/01/31 12:24:33;;;;;;;;;;;7.10;99.90;;;;;;8382938;28;19924;-74
2023/01/31 12:28:38;;;;;;;;;;;7.10;99.90;;;;;;8398985;28;19934;-75
2023/01/31 12:32:40;;;;;;;;;;;7.20;99.90;;;;;;8406531;28;19931;-75
2023/01/31 12:36:52;;;;;;;;;;;7.20;99.90;;;;;;8399958;28;19947;-75
2023/01/31 12:40:54;;;;;;;;;;;7.20;99.90;;;;;;8393159;28;19983;-74
2023/01/31 12:45:20;;;;;;;;;;;7.30;99.90;;;;;;8389527;28;19971;-75
2023/01/31 12:49:40;;;;;;;;;;;7.30;99.90;;;;;;8397820;28;19968;-75
2023/01/31 12:53:48;;;;;;;;;;;7.30;99.90;;;;;;8376967;28;19924;-74
2023/01/31 12:57:50;;;;;;;;;;;7.40;99.90;;;;;;8381483;28;19935;-75
2023/01/31 13:02:11;;;;;;;;;;;7.60;99.90;;;;;;8397523;28;19968;-74
2023/01/31 13:06:16;;;;;;;;;;;7.70;99.90;;;;;;8396325;28;19930;-74
2023/01/31 13:10:31;;;;;;;;;;;7.80;99.90;;;;;;8399655;28;19939;-74
2023/01/31 13:14:36;;;;;;;;;;;7.80;99.90;;;;;;8395657;28;20380;-74
2023/01/31 13:18:38;;;;;;;;;;;7.90;99.90;;;;;;8381473;28;20022;-75
2023/01/31 13:22:45;;;;;;;;;;;7.90;99.90;;;;;;8412290;28;20104;-75
2023/01/31 13:27:06;;;;;;;;;;;8.00;99.90;;;;;;8385035;28;20396;-74
2023/01/31 13:31:10;;;;;;;;;;;8.00;99.90;;;;;;8402724;28;19924;-75
2023/01/31 13:35:25;;;;;;;;;;;8.10;99.90;;;;;;8410482;28;19925;-75
2023/01/31 13:39:30;;;;;;;;;;;8.10;99.90;;;;;;8413415;28;19978;-75
2023/01/31 13:43:31;;;;;;;;;;;8.20;99.90;;;;;;8388088;28;20044;-75
2023/01/31 13:47:42;;;;;;;;;;;8.20;99.90;;;;;;8387400;28;19925;-75
2023/01/31 13:51:49;;;;;;;;;;;8.30;99.90;;;;;;8398974;28;20291;-75
2023/01/31 13:55:51;;;;;;;;;;;8.30;99.90;;;;;;8397212;28;19931;-74
2023/01/31 14:00:01;;;;;;;;;;;8.30;99.90;;;;;;8370928;28;19975;-74
2023/01/31 14:04:16;;;;;;;;;;;8.40;99.90;;;;;;8397960;28;20375;-75
2023/01/31 14:08:36;;;;;;;;;;;8.40;99.90;;;;;;8400836;28;19932;-74
2023/01/31 14:12:39;;;;;;;;;;;8.40;99.90;;;;;;8390485;28;19932;-74
2023/01/31 14:16:42;;;;;;;;;;;8.40;99.90;;;;;;8390760;28;19986;-75
2023/01/31 14:20:44;;;;;;;;;;;8.50;99.90;;;;;;8376873;28;19931;-75
2023/01/31 14:24:46;;;;;;;;;;;8.60;99.90;;;;;;8373107;28;19991;-75
2023/01/31 14:28:47;;;;;;;;;;;8.70;99.90;;;;;;8378160;28;19985;-75
2023/01/31 14:33:06;;;;;;;;;;;9.00;99.90;;;;;;8357958;28;20464;-75
2023/01/31 14:37:15;;;;;;;;;;;9.20;99.90;;;;;;8368931;28;19928;-75
2023/01/31 14:41:22;;;;;;;;;;;9.50;99.90;;;;;;8363769;28;19932;-75
2023/01/31 14:45:23;;;;;;;;;;;9.70;99.90;;;;;;8366013;28;19986;-75
2023/01/31 14:49:34;;;;;;;;;;;9.80;99.90;;;;;;8373754;28;19928;-75
2023/01/31 14:54:05;;;;;;;;;;;9.90;99.90;;;;;;8363280;28;19976;-75
2023/01/31 14:58:13;;;;;;;;;;;9.80;99.90;;;;;;8316793;28;20641;-75
2023/01/31 15:02:21;;;;;;;;;;;9.70;99.90;;;;;;8363125;28;19935;-75
2023/01/31 15:06:26;;;;;;;;;;;9.50;99.90;;;;;;8377595;28;19986;-75
2023/01/31 15:10:46;;;;;;;;;;;9.40;99.90;;;;;;8368572;28;19933;-75
2023/01/31 15:14:48;;;;;;;;;;;9.20;99.90;;;;;;8370754;28;19932;-75
2023/01/31 15:18:58;;;;;;;;;;;9.20;99.90;;;;;;8367434;28;20256;-75
2023/01/31 15:23:03;;;;;;;;;;;9.20;99.90;;;;;;8358025;28;20568;-75
2023/01/31 15:27:10;;;;;;;;;;;9.60;99.90;;;;;;8365022;28;19972;-74
2023/01/31 15:31:14;;;;;;;;;;;9.50;99.90;;;;;;8371096;28;20023;-75
2023/01/31 15:35:20;;;;;;;;;;;9.50;99.90;;;;;;8355705;28;19933;-75
2023/01/31 15:49:43;;;;;;;;;;;9.20;99.90;;;;;;8366502;28;19927;-75
2023/01/31 15:53:44;;;;;;;;;;;9.10;99.90;;;;;;8384104;28;19928;-75
2023/01/31 15:57:51;;;;;;;;;;;9.00;99.90;;;;;;8363112;28;19925;-75
2023/01/31 16:01:57;;;;;;;;;;;9.00;99.90;;;;;;8349896;28;19951;-75
2023/01/31 16:05:58;;;;;;;;;;;9.00;99.90;;;;;;8366866;28;20015;-75
2023/01/31 16:25:17;;;;;;;;;;;8.90;99.90;;;;;;8370904;28;19932;-75
2023/01/31 16:29:20;;;;;;;;;;;8.90;99.90;;;;;;8370436;28;19947;-75
2023/01/31 16:33:22;;;;;;;;;;;8.80;99.90;;;;;;8371745;28;20308;-75
2023/01/31 16:37:37;;;;;;;;;;;8.70;99.90;;;;;;8364404;28;20366;-75
2023/01/31 16:41:45;;;;;;;;;;;8.60;99.90;;;;;;8365516;28;20370;-75
2023/01/31 16:45:51;;;;;;;;;;;8.50;99.90;;;;;;8359616;28;19932;-75
2023/01/31 16:50:12;;;;;;;;;;;8.40;99.90;;;;;;8356916;28;19928;-75
2023/01/31 16:54:14;;;;;;;;;;;8.40;99.90;;;;;;8360018;28;19935;-75
2023/01/31 16:58:35;;;;;;;;;;;8.30;99.90;;;;;;8348224;28;19925;-75
2023/01/31 17:02:40;;;;;;;;;;;8.10;99.90;;;;;;8362208;28;19928;-75
2023/01/31 17:06:43;;;;;;;;;;;8.10;99.90;;;;;;8371716;28;20019;-75
2023/01/31 17:10:46;;;;;;;;;;;8.00;99.90;;;;;;8347207;28;20024;-75
2023/01/31 17:14:48;;;;;;;;;;;7.90;99.90;;;;;;8370400;28;19924;-75
2023/01/31 17:18:50;;;;;;;;;;;7.90;99.90;;;;;;8357941;28;19933;-75
2023/01/31 17:22:52;;;;;;;;;;;7.80;99.90;;;;;;8361489;28;19925;-75
2023/01/31 17:27:03;;;;;;;;;;;7.70;99.90;;;;;;8360771;28;19975;-74
2023/01/31 17:31:04;;;;;;;;;;;7.70;99.90;;;;;;8369537;28;19965;-75
2023/01/31 17:35:17;;;;;;;;;;;7.60;99.90;;;;;;8353081;28;19928;-75
2023/01/31 17:39:20;;;;;;;;;;;7.60;99.90;;;;;;8354778;28;20395;-75
2023/01/31 17:43:21;;;;;;;;;;;7.60;99.90;;;;;;8346661;28;19933;-75
2023/01/31 17:47:25;;;;;;;;;;;7.60;99.90;;;;;;8348934;28;19928;-75
2023/01/31 17:51:27;;;;;;;;;;;7.60;99.90;;;;;;8340048;28;20064;-75
2023/01/31 17:55:28;;;;;;;;;;;7.50;99.90;;;;;;8359978;28;20355;-75
2023/01/31 17:59:30;;;;;;;;;;;7.50;99.90;;;;;;8356622;28;20463;-75
2023/01/31 18:03:33;;;;;;;;;;;7.50;99.90;;;;;;8357998;28;20001;-75
2023/01/31 18:07:35;;;;;;;;;;;7.50;99.90;;;;;;8361877;28;20572;-75
2023/01/31 18:11:37;;;;;;;;;;;7.40;99.90;;;;;;8369610;28;19976;-75
2023/01/31 18:15:39;;;;;;;;;;;7.40;99.90;;;;;;8343885;28;19941;-75
2023/01/31 18:19:40;;;;;;;;;;;7.30;99.90;;;;;;8343144;28;19978;-75
2023/01/31 18:23:42;;;;;;;;;;;7.30;99.90;;;;;;8356391;28;19931;-75
2023/01/31 18:27:44;;;;;;;;;;;7.30;99.90;;;;;;8348289;28;19925;-75
2023/01/31 18:31:46;;;;;;;;;;;7.30;99.90;;;;;;8368221;28;20439;-75
2023/01/31 18:35:55;;;;;;;;;;;7.30;99.90;;;;;;8358115;28;19924;-75
2023/01/31 18:39:56;;;;;;;;;;;7.20;99.90;;;;;;8343976;28;20343;-75
2023/01/31 18:43:59;;;;;;;;;;;7.20;99.90;;;;;;8358414;28;19991;-75
2023/01/31 18:48:00;;;;;;;;;;;7.10;99.90;;;;;;8362658;28;20294;-75
2023/01/31 18:52:03;;;;;;;;;;;7.10;99.90;;;;;;8350202;28;19924;-75
2023/01/31 18:56:06;;;;;;;;;;;7.00;99.90;;;;;;8377065;28;19967;-75
2023/01/31 19:00:08;;;;;;;;;;;7.00;99.90;;;;;;8362707;28;19936;-75
2023/01/31 19:04:09;;;;;;;;;;;6.90;99.90;;;;;;8368239;28;19932;-75
2023/01/31 19:08:11;;;;;;;;;;;6.90;99.90;;;;;;8369449;28;19939;-75
2023/01/31 19:12:13;;;;;;;;;;;6.80;99.90;;;;;;8375381;28;20845;-75
2023/01/31 19:26:23;;;;;;;;;;;6.70;99.90;;;;;;8368309;28;19927;-75
2023/01/31 19:30:24;;;;;;;;;;;6.70;99.90;;;;;;8365991;28;19959;-75
2023/01/31 19:34:26;;;;;;;;;;;6.80;99.90;;;;;;8367064;28;19946;-75
2023/01/31 19:38:28;;;;;;;;;;;6.70;99.90;;;;;;8371250;28;20371;-75
2023/01/31 19:42:29;;;;;;;;;;;6.70;99.90;;;;;;8368824;28;20368;-75
2023/01/31 19:46:32;;;;;;;;;;;6.70;99.90;;;;;;8362685;28;19929;-76
2023/01/31 19:50:37;;;;;;;;;;;6.60;99.90;;;;;;8368439;28;19925;-75
2023/01/31 19:54:40;;;;;;;;;;;6.60;99.90;;;;;;8367879;28;19929;-75
2023/01/31 19:58:41;;;;;;;;;;;6.50;99.90;;;;;;8387721;28;19983;-75
2023/01/31 20:02:43;;;;;;;;;;;6.50;99.90;;;;;;8355852;28;19925;-75
2023/01/31 20:06:45;;;;;;;;;;;6.40;99.90;;;;;;8368387;28;19924;-75
2023/01/31 20:10:46;;;;;;;;;;;6.40;99.90;;;;;;8367016;28;19925;-75
2023/01/31 20:14:48;;;;;;;;;;;6.40;99.90;;;;;;8367476;28;20301;-75
2023/01/31 20:18:50;;;;;;;;;;;6.40;99.90;;;;;;8365529;28;19925;-75
2023/01/31 20:22:52;;;;;;;;;;;6.30;99.90;;;;;;8371890;28;20296;-75
2023/01/31 20:26:54;;;;;;;;;;;6.30;99.90;;;;;;8367525;28;19990;-75
2023/01/31 20:31:01;;;;;;;;;;;6.20;99.90;;;;;;8365761;28;20007;-75
2023/01/31 20:35:03;;;;;;;;;;;6.20;99.90;;;;;;8369100;28;20427;-74
2023/01/31 20:39:05;;;;;;;;;;;6.10;99.90;;;;;;8366642;28;20274;-74
2023/01/31 20:43:07;;;;;;;;;;;6.10;99.90;;;;;;8350955;28;19964;-74
2023/01/31 20:47:08;;;;;;;;;;;6.00;99.90;;;;;;8369280;28;19942;-75
2023/01/31 20:51:10;;;;;;;;;;;6.00;99.90;;;;;;8357381;28;19955;-75
2023/01/31 20:55:12;;;;;;;;;;;5.90;99.90;;;;;;8361094;28;20311;-75
2023/01/31 20:59:17;;;;;;;;;;;5.80;99.90;;;;;;8363764;28;20360;-75
2023/01/31 21:03:19;;;;;;;;;;;5.80;99.90;;;;;;8370698;28;20011;-75
2023/01/31 21:07:20;;;;;;;;;;;5.80;99.90;;;;;;8376440;28;20447;-75
2023/01/31 21:11:22;;;;;;;;;;;5.70;99.90;;;;;;8367445;28;19929;-75
2023/01/31 21:15:24;;;;;;;;;;;5.60;99.90;;;;;;8347059;28;19924;-75
2023/01/31 21:19:28;;;;;;;;;;;5.60;99.90;;;;;;8347335;28;19978;-75
2023/01/31 21:23:30;;;;;;;;;;;5.50;99.90;;;;;;8370280;28;19969;-75
2023/01/31 21:27:31;;;;;;;;;;;5.40;99.90;;;;;;8366233;28;19931;-76
2023/01/31 21:31:34;;;;;;;;;;;5.40;99.90;;;;;;8364261;28;19986;-75
2023/01/31 21:35:36;;;;;;;;;;;5.30;99.90;;;;;;8363226;28;20269;-75
2023/01/31 21:39:37;;;;;;;;;;;5.30;99.90;;;;;;8367888;28;19939;-75
2023/01/31 21:43:39;;;;;;;;;;;5.20;99.90;;;;;;8369796;28;19928;-75
2023/01/31 21:52:01;;;;;;;;;;;5.10;99.90;;;;;;8367196;28;20380;-75
2023/01/31 21:56:04;;;;;;;;;;;5.00;99.90;;;;;;8348000;28;19928;-75
2023/01/31 22:00:06;;;;;;;;;;;5.00;99.90;;;;;;8362351;28;19967;-75
2023/01/31 22:04:08;;;;;;;;;;;4.90;99.90;;;;;;8388067;28;19931;-75
2023/01/31 22:08:10;;;;;;;;;;;4.80;99.90;;;;;;8389110;28;19967;-75
2023/01/31 22:12:11;;;;;;;;;;;4.70;99.90;;;;;;8369859;28;20714;-75
2023/01/31 22:16:14;;;;;;;;;;;4.70;99.90;;;;;;8381094;28;19959;-75
2023/01/31 22:20:15;;;;;;;;;;;4.70;99.90;;;;;;8366155;28;20288;-75
2023/01/31 22:24:17;;;;;;;;;;;4.70;99.90;;;;;;8389621;28;20403;-75
2023/01/31 22:28:19;;;;;;;;;;;4.70;99.90;;;;;;8366976;28;19979;-75
2023/01/31 22:32:20;;;;;;;;;;;4.70;99.90;;;;;;8385959;28;19931;-75
2023/01/31 22:36:25;;;;;;;;;;;4.70;99.90;;;;;;8370867;28;19929;-75
2023/01/31 22:40:26;;;;;;;;;;;4.60;99.90;;;;;;8392511;28;19924;-76
2023/01/31 22:44:28;;;;;;;;;;;4.60;99.90;;;;;;8386133;28;20287;-76
2023/01/31 22:48:30;;;;;;;;;;;4.60;99.90;;;;;;8395050;28;19931;-75
2023/01/31 22:52:32;;;;;;;;;;;4.60;99.90;;;;;;8385789;28;19928;-75
2023/01/31 22:56:33;;;;;;;;;;;4.60;99.90;;;;;;8380045;28;19924;-75
2023/01/31 23:00:36;;;;;;;;;;;4.50;99.90;;;;;;8369143;28;19928;-75
2023/01/31 23:04:37;;;;;;;;;;;4.50;99.90;;;;;;8374969;28;20032;-75
2023/01/31 23:08:39;;;;;;;;;;;4.50;99.90;;;;;;8392722;28;19978;-75
2023/01/31 23:12:41;;;;;;;;;;;4.50;99.90;;;;;;8372869;28;19928;-75
2023/01/31 23:21:05;;;;;;;;;;;4.50;99.90;;;;;;8396877;28;19933;-75
2023/01/31 23:25:08;;;;;;;;;;;4.60;99.90;;;;;;8391701;28;19963;-75
2023/01/31 23:29:09;;;;;;;;;;;4.60;99.90;;;;;;8389526;28;20291;-75
2023/01/31 23:33:11;;;;;;;;;;;4.70;99.90;;;;;;8393080;28;19928;-75
2023/01/31 23:37:13;;;;;;;;;;;4.70;99.90;;;;;;8388062;28;19924;-75
2023/01/31 23:41:14;;;;;;;;;;;4.80;99.90;;;;;;8391514;28;19975;-75
2023/01/31 23:45:16;;;;;;;;;;;4.80;99.90;;;;;;8360064;28;20534;-75
2023/01/31 23:49:17;;;;;;;;;;;4.80;99.90;;;;;;8396374;28;19925;-75
2023/01/31 23:53:19;;;;;;;;;;;4.90;99.90;;;;;;8388920;28;20339;-75
2023/01/31 23:57:21;;;;;;;;;;;4.90;99.90;;;;;;8397595;28;20363;-76
